sensor_id;sensor_type;location;lat;lon;timestamp;temperature;humidity
69776;DHT22;57049;51.450;-2.516;2023-04-01T00:00:51;9.82;99.99
69776;DHT22;57049;51.450;-2.516;2023-04-01T00:03:17;9.82;99.99
69776;DHT22;57049;51.450;-2.516;2023-04-01T00:05:43;9.82;99.99
69776;DHT22;57049;51.450;-2.516;2023-04-01T00:08:08;9.86;99.91
69776;DHT22;57049;51.450;-2.516;2023-04-01T00:10:34;9.80;99.98
69776;DHT22;57049;51.450;-2.516;2023-04-01T00:13:00;9.82;99.96
69776;DHT22;57049;51.450;-2.516;2023-04-01T00:15:25;9.78;99.99
69776;DHT22;57049;51.450;-2.516;2023-04-01T00:17:51;9.82;99.99
69776;DHT22;57049;51.450;-2.516;2023-04-01T00:20:16;9.80;99.98
69776;DHT22;57049;51.450;-2.516;2023-04-01T00:22:42;9.83;99.90
69776;DHT22;57049;51.450;-2.516;2023-04-01T00:25:08;9.82;99.94
69776;DHT22;57049;51.450;-2.516;2023-04-01T00:27:34;9.79;99.94
69776;DHT22;57049;51.450;-2.516;2023-04-01T00:29:59;9.82;99.92
69776;DHT22;57049;51.450;-2.516;2023-04-01T00:32:25;9.76;99.95
69776;DHT22;57049;51.450;-2.516;2023-04-01T00:34:51;9.73;99.97
69776;DHT22;57049;51.450;-2.516;2023-04-01T00:37:17;9.76;99.99
69776;DHT22;57049;51.450;-2.516;2023-04-01T00:39:43;9.73;99.99
69776;DHT22;57049;51.450;-2.516;2023-04-01T00:42:10;9.70;99.99
69776;DHT22;57049;51.450;-2.516;2023-04-01T00:44:41;9.66;99.99
69776;DHT22;57049;51.450;-2.516;2023-04-01T00:47:06;9.73;99.99
69776;DHT22;57049;51.450;-2.516;2023-04-01T00:49:36;9.75;99.99
69776;DHT22;57049;51.450;-2.516;2023-04-01T00:52:04;9.72;99.98
69776;DHT22;57049;51.450;-2.516;2023-04-01T00:54:32;9.69;99.94
69776;DHT22;57049;51.450;-2.516;2023-04-01T00:57:01;9.72;99.99
69776;DHT22;57049;51.450;-2.516;2023-04-01T00:59:30;9.66;99.99
69776;DHT22;57049;51.450;-2.516;2023-04-01T01:01:57;9.70;99.99
69776;DHT22;57049;51.450;-2.516;2023-04-01T01:04:26;9.65;99.99
69776;DHT22;57049;51.450;-2.516;2023-04-01T01:10:38;9.69;99.99
69776;DHT22;57049;51.450;-2.516;2023-04-01T01:13:31;9.68;99.99
69776;DHT22;57049;51.450;-2.516;2023-04-01T01:19:07;9.66;99.99
69776;DHT22;57049;51.450;-2.516;2023-04-01T01:22:03;9.60;99.99
69776;DHT22;57049;51.450;-2.516;2023-04-01T01:27:02;9.63;99.99
69776;DHT22;57049;51.450;-2.516;2023-04-01T01:37:43;9.56;99.99
69776;DHT22;57049;51.450;-2.516;2023-04-01T01:40:11;9.62;99.99
69776;DHT22;57049;51.450;-2.516;2023-04-01T01:42:39;9.62;99.99
69776;DHT22;57049;51.450;-2.516;2023-04-01T01:45:06;9.63;99.99
69776;DHT22;57049;51.450;-2.516;2023-04-01T01:47:34;9.68;99.99
69776;DHT22;57049;51.450;-2.516;2023-04-01T01:50:01;9.68;99.99
69776;DHT22;57049;51.450;-2.516;2023-04-01T01:52:27;9.63;99.99
69776;DHT22;57049;51.450;-2.516;2023-04-01T01:54:57;9.65;99.99
69776;DHT22;57049;51.450;-2.516;2023-04-01T01:57:34;9.60;99.99
69776;DHT22;57049;51.450;-2.516;2023-04-01T02:00:06;9.60;99.99
69776;DHT22;57049;51.450;-2.516;2023-04-01T02:02:40;9.63;99.99
69776;DHT22;57049;51.450;-2.516;2023-04-01T02:05:09;9.60;99.99
69776;DHT22;57049;51.450;-2.516;2023-04-01T02:07:37;9.59;99.99
69776;DHT22;57049;51.450;-2.516;2023-04-01T02:10:05;9.59;99.99
69776;DHT22;57049;51.450;-2.516;2023-04-01T02:12:32;9.60;99.99
69776;DHT22;57049;51.450;-2.516;2023-04-01T02:15:03;9.60;99.99
69776;DHT22;57049;51.450;-2.516;2023-04-01T02:17:32;9.62;99.99
69776;DHT22;57049;51.450;-2.516;2023-04-01T02:20:02;9.53;99.99
69776;DHT22;57049;51.450;-2.516;2023-04-01T02:22:32;9.55;99.99
69776;DHT22;57049;51.450;-2.516;2023-04-01T02:25:04;9.52;99.99
69776;DHT22;57049;51.450;-2.516;2023-04-01T02:27:31;9.48;99.99
69776;DHT22;57049;51.450;-2.516;2023-04-01T02:29:57;9.43;99.99
69776;DHT22;57049;51.450;-2.516;2023-04-01T02:32:23;9.42;99.99
69776;DHT22;57049;51.450;-2.516;2023-04-01T02:34:51;9.45;99.99
69776;DHT22;57049;51.450;-2.516;2023-04-01T02:37:17;9.42;99.99
69776;DHT22;57049;51.450;-2.516;2023-04-01T02:39:43;9.42;99.88
69776;DHT22;57049;51.450;-2.516;2023-04-01T02:42:09;9.46;99.93
69776;DHT22;57049;51.450;-2.516;2023-04-01T02:44:34;9.43;99.93
69776;DHT22;57049;51.450;-2.516;2023-04-01T02:47:00;9.42;99.86
69776;DHT22;57049;51.450;-2.516;2023-04-01T02:49:25;9.43;99.91
69776;DHT22;57049;51.450;-2.516;2023-04-01T02:51:51;9.42;99.81
69776;DHT22;57049;51.450;-2.516;2023-04-01T02:54:17;9.42;99.72
69776;DHT22;57049;51.450;-2.516;2023-04-01T02:56:43;9.42;99.78
69776;DHT22;57049;51.450;-2.516;2023-04-01T02:59:09;9.41;99.64
69776;DHT22;57049;51.450;-2.516;2023-04-01T03:01:35;9.39;99.73
69776;DHT22;57049;51.450;-2.516;2023-04-01T03:04:00;9.36;99.75
69776;DHT22;57049;51.450;-2.516;2023-04-01T03:06:26;9.38;99.75
69776;DHT22;57049;51.450;-2.516;2023-04-01T03:08:51;9.42;99.71
69776;DHT22;57049;51.450;-2.516;2023-04-01T03:11:17;9.35;99.75
69776;DHT22;57049;51.450;-2.516;2023-04-01T03:13:42;9.31;99.87
69776;DHT22;57049;51.450;-2.516;2023-04-01T03:16:07;9.39;99.78
69776;DHT22;57049;51.450;-2.516;2023-04-01T03:18:33;9.41;99.72
69776;DHT22;57049;51.450;-2.516;2023-04-01T03:21:15;9.38;99.76
69776;DHT22;57049;51.450;-2.516;2023-04-01T03:23:41;9.35;99.63
69776;DHT22;57049;51.450;-2.516;2023-04-01T03:26:07;9.29;99.79
69776;DHT22;57049;51.450;-2.516;2023-04-01T03:28:32;9.25;99.85
69776;DHT22;57049;51.450;-2.516;2023-04-01T03:30:58;9.24;99.87
69776;DHT22;57049;51.450;-2.516;2023-04-01T03:33:23;9.25;99.95
69776;DHT22;57049;51.450;-2.516;2023-04-01T03:35:49;9.25;99.91
69776;DHT22;57049;51.450;-2.516;2023-04-01T03:38:17;9.21;99.97
69776;DHT22;57049;51.450;-2.516;2023-04-01T03:40:43;9.24;99.99
69776;DHT22;57049;51.450;-2.516;2023-04-01T03:43:09;9.24;99.99
69776;DHT22;57049;51.450;-2.516;2023-04-01T03:45:35;9.27;99.94
69776;DHT22;57049;51.450;-2.516;2023-04-01T03:48:01;9.29;99.87
69776;DHT22;57049;51.450;-2.516;2023-04-01T03:50:26;9.28;99.87
69776;DHT22;57049;51.450;-2.516;2023-04-01T03:52:52;9.31;99.81
69776;DHT22;57049;51.450;-2.516;2023-04-01T03:55:17;9.24;99.91
69776;DHT22;57049;51.450;-2.516;2023-04-01T03:57:43;9.22;99.94
69776;DHT22;57049;51.450;-2.516;2023-04-01T04:00:10;9.21;99.94
69776;DHT22;57049;51.450;-2.516;2023-04-01T04:02:35;9.27;99.87
69776;DHT22;57049;51.450;-2.516;2023-04-01T04:05:01;9.22;99.88
69776;DHT22;57049;51.450;-2.516;2023-04-01T04:07:27;9.22;99.93
69776;DHT22;57049;51.450;-2.516;2023-04-01T04:09:52;9.24;99.96
69776;DHT22;57049;51.450;-2.516;2023-04-01T04:12:17;9.19;99.91
69776;DHT22;57049;51.450;-2.516;2023-04-01T04:14:43;9.22;99.86
69776;DHT22;57049;51.450;-2.516;2023-04-01T04:17:10;9.24;99.96
69776;DHT22;57049;51.450;-2.516;2023-04-01T04:19:41;9.17;99.98
69776;DHT22;57049;51.450;-2.516;2023-04-01T04:22:06;9.19;99.96
69776;DHT22;57049;51.450;-2.516;2023-04-01T04:24:34;9.22;99.97
69776;DHT22;57049;51.450;-2.516;2023-04-01T04:26:59;9.24;99.99
69776;DHT22;57049;51.450;-2.516;2023-04-01T04:29:25;9.22;99.98
69776;DHT22;57049;51.450;-2.516;2023-04-01T04:31:50;9.24;99.89
69776;DHT22;57049;51.450;-2.516;2023-04-01T04:34:16;9.18;99.99
69776;DHT22;57049;51.450;-2.516;2023-04-01T04:36:41;9.15;99.99
69776;DHT22;57049;51.450;-2.516;2023-04-01T04:39:06;9.15;99.99
69776;DHT22;57049;51.450;-2.516;2023-04-01T04:41:32;9.18;99.99
69776;DHT22;57049;51.450;-2.516;2023-04-01T04:43:57;9.22;99.99
69776;DHT22;57049;51.450;-2.516;2023-04-01T04:46:24;9.22;99.97
69776;DHT22;57049;51.450;-2.516;2023-04-01T04:48:49;9.15;99.99
69776;DHT22;57049;51.450;-2.516;2023-04-01T04:51:17;9.12;99.99
69776;DHT22;57049;51.450;-2.516;2023-04-01T04:53:43;9.17;99.99
69776;DHT22;57049;51.450;-2.516;2023-04-01T04:56:08;9.12;99.99
69776;DHT22;57049;51.450;-2.516;2023-04-01T04:58:34;9.12;99.99
69776;DHT22;57049;51.450;-2.516;2023-04-01T05:01:06;9.14;99.99
69776;DHT22;57049;51.450;-2.516;2023-04-01T05:03:31;9.12;99.99
69776;DHT22;57049;51.450;-2.516;2023-04-01T05:05:57;9.18;99.99
69776;DHT22;57049;51.450;-2.516;2023-04-01T05:08:22;9.12;99.99
69776;DHT22;57049;51.450;-2.516;2023-04-01T05:10:48;9.14;99.99
69776;DHT22;57049;51.450;-2.516;2023-04-01T05:13:13;9.11;99.99
69776;DHT22;57049;51.450;-2.516;2023-04-01T05:15:39;9.08;99.99
69776;DHT22;57049;51.450;-2.516;2023-04-01T05:18:05;9.08;99.99
69776;DHT22;57049;51.450;-2.516;2023-04-01T05:20:30;9.12;99.99
69776;DHT22;57049;51.450;-2.516;2023-04-01T05:22:57;9.08;99.99
69776;DHT22;57049;51.450;-2.516;2023-04-01T05:25:22;9.12;99.99
69776;DHT22;57049;51.450;-2.516;2023-04-01T05:27:48;9.04;99.99
69776;DHT22;57049;51.450;-2.516;2023-04-01T05:30:13;9.10;99.99
69776;DHT22;57049;51.450;-2.516;2023-04-01T05:32:39;9.12;99.99
69776;DHT22;57049;51.450;-2.516;2023-04-01T05:35:05;9.08;99.99
69776;DHT22;57049;51.450;-2.516;2023-04-01T05:37:30;9.11;99.99
69776;DHT22;57049;51.450;-2.516;2023-04-01T05:39:56;9.07;99.99
69776;DHT22;57049;51.450;-2.516;2023-04-01T05:42:23;9.11;99.99
69776;DHT22;57049;51.450;-2.516;2023-04-01T05:44:49;9.10;99.99
69776;DHT22;57049;51.450;-2.516;2023-04-01T05:47:14;9.10;99.99
69776;DHT22;57049;51.450;-2.516;2023-04-01T05:49:40;9.08;99.99
69776;DHT22;57049;51.450;-2.516;2023-04-01T05:52:05;9.07;99.99
69776;DHT22;57049;51.450;-2.516;2023-04-01T05:54:31;9.07;99.99
69776;DHT22;57049;51.450;-2.516;2023-04-01T05:56:56;9.07;99.99
69776;DHT22;57049;51.450;-2.516;2023-04-01T05:59:21;9.08;99.99
69776;DHT22;57049;51.450;-2.516;2023-04-01T06:01:47;9.08;99.99
69776;DHT22;57049;51.450;-2.516;2023-04-01T06:04:14;9.08;99.99
69776;DHT22;57049;51.450;-2.516;2023-04-01T06:06:40;9.05;99.99
69776;DHT22;57049;51.450;-2.516;2023-04-01T06:09:15;9.03;99.99
69776;DHT22;57049;51.450;-2.516;2023-04-01T06:37:17;9.08;99.99
69776;DHT22;57049;51.450;-2.516;2023-04-01T06:48:55;9.17;99.93
69776;DHT22;57049;51.450;-2.516;2023-04-01T06:54:18;9.17;99.78
69776;DHT22;57049;51.450;-2.516;2023-04-01T06:56:48;9.11;99.64
69776;DHT22;57049;51.450;-2.516;2023-04-01T06:59:19;9.12;99.60
69776;DHT22;57049;51.450;-2.516;2023-04-01T07:01:50;9.12;99.63
69776;DHT22;57049;51.450;-2.516;2023-04-01T07:04:26;9.11;99.54
69776;DHT22;57049;51.450;-2.516;2023-04-01T07:09:46;9.15;99.74
69776;DHT22;57049;51.450;-2.516;2023-04-01T07:14:49;9.11;99.77
69776;DHT22;57049;51.450;-2.516;2023-04-01T07:17:19;9.17;99.91
69776;DHT22;57049;51.450;-2.516;2023-04-01T07:22:42;9.19;99.88
69776;DHT22;57049;51.450;-2.516;2023-04-01T07:25:18;9.17;99.99
69776;DHT22;57049;51.450;-2.516;2023-04-01T07:27:46;9.17;99.98
69776;DHT22;57049;51.450;-2.516;2023-04-01T07:30:20;9.25;99.90
69776;DHT22;57049;51.450;-2.516;2023-04-01T07:33:04;9.18;99.80
69776;DHT22;57049;51.450;-2.516;2023-04-01T07:35:41;9.21;99.87
69776;DHT22;57049;51.450;-2.516;2023-04-01T07:41:09;9.25;99.92
69776;DHT22;57049;51.450;-2.516;2023-04-01T07:46:33;9.17;99.93
69776;DHT22;57049;51.450;-2.516;2023-04-01T07:57:18;9.31;99.73
69776;DHT22;57049;51.450;-2.516;2023-04-01T08:05:14;9.41;99.67
69776;DHT22;57049;51.450;-2.516;2023-04-01T08:07:54;9.46;99.58
69776;DHT22;57049;51.450;-2.516;2023-04-01T08:10:36;9.56;99.31
69776;DHT22;57049;51.450;-2.516;2023-04-01T08:15:54;9.63;99.35
69776;DHT22;57049;51.450;-2.516;2023-04-01T08:18:46;9.63;99.35
69776;DHT22;57049;51.450;-2.516;2023-04-01T08:21:24;9.66;99.24
69776;DHT22;57049;51.450;-2.516;2023-04-01T08:23:56;9.62;98.90
69776;DHT22;57049;51.450;-2.516;2023-04-01T08:26:42;9.53;98.83
69776;DHT22;57049;51.450;-2.516;2023-04-01T08:29:36;9.50;98.75
69776;DHT22;57049;51.450;-2.516;2023-04-01T08:32:18;9.41;98.43
69776;DHT22;57049;51.450;-2.516;2023-04-01T08:34:50;9.41;98.48
69776;DHT22;57049;51.450;-2.516;2023-04-01T08:37:24;9.24;98.46
69776;DHT22;57049;51.450;-2.516;2023-04-01T08:39:54;9.25;98.58
69776;DHT22;57049;51.450;-2.516;2023-04-01T08:42:50;9.24;98.52
69776;DHT22;57049;51.450;-2.516;2023-04-01T08:53:52;9.25;98.73
69776;DHT22;57049;51.450;-2.516;2023-04-01T08:59:15;9.28;98.94
69776;DHT22;57049;51.450;-2.516;2023-04-01T09:04:52;9.31;98.83
69776;DHT22;57049;51.450;-2.516;2023-04-01T09:15:42;9.28;99.04
69776;DHT22;57049;51.450;-2.516;2023-04-01T09:24:36;9.42;99.27
69776;DHT22;57049;51.450;-2.516;2023-04-01T09:27:14;9.58;99.25
69776;DHT22;57049;51.450;-2.516;2023-04-01T09:30:23;9.63;98.71
69776;DHT22;57049;51.450;-2.516;2023-04-01T09:35:55;9.70;99.05
69776;DHT22;57049;51.450;-2.516;2023-04-01T09:41:30;9.68;98.74
69776;DHT22;57049;51.450;-2.516;2023-04-01T09:44:29;9.65;98.89
69776;DHT22;57049;51.450;-2.516;2023-04-01T09:52:51;9.56;98.71
69776;DHT22;57049;51.450;-2.516;2023-04-01T09:58:55;9.46;98.51
69776;DHT22;57049;51.450;-2.516;2023-04-01T10:05:12;10.07;98.33
69776;DHT22;57049;51.450;-2.516;2023-04-01T10:07:46;10.04;97.09
69776;DHT22;57049;51.450;-2.516;2023-04-01T10:10:41;10.13;97.05
69776;DHT22;57049;51.450;-2.516;2023-04-01T10:30:54;10.03;96.78
69776;DHT22;57049;51.450;-2.516;2023-04-01T10:33:19;9.94;97.37
69776;DHT22;57049;51.450;-2.516;2023-04-01T10:53:36;9.76;97.46
69776;DHT22;57049;51.450;-2.516;2023-04-01T10:56:17;9.96;97.03
69776;DHT22;57049;51.450;-2.516;2023-04-01T11:16:18;9.75;98.82
69776;DHT22;57049;51.450;-2.516;2023-04-01T11:30:14;9.89;98.39
69776;DHT22;57049;51.450;-2.516;2023-04-01T11:35:47;9.52;97.79
69776;DHT22;57049;51.450;-2.516;2023-04-01T11:38:24;9.65;98.57
69776;DHT22;57049;51.450;-2.516;2023-04-01T11:44:01;9.86;98.72
69776;DHT22;57049;51.450;-2.516;2023-04-01T12:15:17;10.41;93.63
69776;DHT22;57049;51.450;-2.516;2023-04-01T12:20:57;10.45;92.58
69776;DHT22;57049;51.450;-2.516;2023-04-01T12:31:27;10.09;94.30
69776;DHT22;57049;51.450;-2.516;2023-04-01T12:45:07;10.52;91.31
69776;DHT22;57049;51.450;-2.516;2023-04-01T12:48:00;10.55;92.44
69776;DHT22;57049;51.450;-2.516;2023-04-01T12:53:23;10.36;92.99
69776;DHT22;57049;51.450;-2.516;2023-04-01T12:55:59;10.24;92.29
69776;DHT22;57049;51.450;-2.516;2023-04-01T13:01:42;9.99;92.77
69776;DHT22;57049;51.450;-2.516;2023-04-01T13:06:43;10.47;92.50
69776;DHT22;57049;51.450;-2.516;2023-04-01T13:12:06;10.43;90.76
69776;DHT22;57049;51.450;-2.516;2023-04-01T13:15:05;10.48;91.18
69776;DHT22;57049;51.450;-2.516;2023-04-01T13:17:58;10.61;90.47
69776;DHT22;57049;51.450;-2.516;2023-04-01T13:31:24;10.44;88.91
69776;DHT22;57049;51.450;-2.516;2023-04-01T13:34:05;10.52;90.10
69776;DHT22;57049;51.450;-2.516;2023-04-01T13:50:50;11.67;85.39
69776;DHT22;57049;51.450;-2.516;2023-04-01T13:59:39;11.32;86.19
69776;DHT22;57049;51.450;-2.516;2023-04-01T14:02:20;11.25;87.35
69776;DHT22;57049;51.450;-2.516;2023-04-01T14:10:25;11.25;86.33
69776;DHT22;57049;51.450;-2.516;2023-04-01T14:16:10;11.36;87.60
69776;DHT22;57049;51.450;-2.516;2023-04-01T14:18:48;11.18;86.81
69776;DHT22;57049;51.450;-2.516;2023-04-01T14:32:51;11.62;83.78
69776;DHT22;57049;51.450;-2.516;2023-04-01T14:41:48;12.17;79.99
69776;DHT22;57049;51.450;-2.516;2023-04-01T14:44:53;12.35;82.27
69776;DHT22;57049;51.450;-2.516;2023-04-01T14:49:52;12.70;79.10
69776;DHT22;57049;51.450;-2.516;2023-04-01T14:52:28;12.85;80.24
69776;DHT22;57049;51.450;-2.516;2023-04-01T14:54:54;12.96;79.01
69776;DHT22;57049;51.450;-2.516;2023-04-01T14:57:28;12.92;78.10
69776;DHT22;57049;51.450;-2.516;2023-04-01T15:00:00;12.25;78.98
69776;DHT22;57049;51.450;-2.516;2023-04-01T15:07:56;11.64;81.93
69776;DHT22;57049;51.450;-2.516;2023-04-01T15:19:28;12.55;79.21
69776;DHT22;57049;51.450;-2.516;2023-04-01T15:33:07;12.14;79.10
69776;DHT22;57049;51.450;-2.516;2023-04-01T15:38:33;12.31;79.82
69776;DHT22;57049;51.450;-2.516;2023-04-01T15:41:16;12.55;79.19
69776;DHT22;57049;51.450;-2.516;2023-04-01T15:43:49;12.78;78.93
69776;DHT22;57049;51.450;-2.516;2023-04-01T16:02:48;12.90;76.88
69776;DHT22;57049;51.450;-2.516;2023-04-01T16:11:41;12.42;75.69
69776;DHT22;57049;51.450;-2.516;2023-04-01T16:16:53;12.50;77.32
69776;DHT22;57049;51.450;-2.516;2023-04-01T16:19:44;12.34;73.27
69776;DHT22;57049;51.450;-2.516;2023-04-01T16:27:49;12.35;75.05
69776;DHT22;57049;51.450;-2.516;2023-04-01T16:33:22;12.21;75.03
69776;DHT22;57049;51.450;-2.516;2023-04-01T16:36:00;12.15;75.14
69776;DHT22;57049;51.450;-2.516;2023-04-01T16:39:10;12.15;74.84
69776;DHT22;57049;51.450;-2.516;2023-04-01T16:41:41;12.13;75.13
69776;DHT22;57049;51.450;-2.516;2023-04-01T16:44:21;12.18;75.11
69776;DHT22;57049;51.450;-2.516;2023-04-01T16:47:07;12.22;74.46
69776;DHT22;57049;51.450;-2.516;2023-04-01T16:49:40;12.28;74.54
69776;DHT22;57049;51.450;-2.516;2023-04-01T16:54:55;12.13;74.92
69776;DHT22;57049;51.450;-2.516;2023-04-01T16:57:31;12.07;75.07
69776;DHT22;57049;51.450;-2.516;2023-04-01T17:02:57;12.10;74.35
69776;DHT22;57049;51.450;-2.516;2023-04-01T17:05:48;11.97;73.44
69776;DHT22;57049;51.450;-2.516;2023-04-01T17:11:19;12.11;74.66
69776;DHT22;57049;51.450;-2.516;2023-04-01T17:22:30;11.87;75.35
69776;DHT22;57049;51.450;-2.516;2023-04-01T17:25:20;11.81;75.23
69776;DHT22;57049;51.450;-2.516;2023-04-01T17:36:35;11.62;76.00
69776;DHT22;57049;51.450;-2.516;2023-04-01T17:39:06;11.56;74.73
69776;DHT22;57049;51.450;-2.516;2023-04-01T17:47:06;11.42;76.54
69776;DHT22;57049;51.450;-2.516;2023-04-01T17:49:39;11.40;75.72
69776;DHT22;57049;51.450;-2.516;2023-04-01T17:54:53;11.37;76.27
69776;DHT22;57049;51.450;-2.516;2023-04-01T17:57:46;11.43;76.96
69776;DHT22;57049;51.450;-2.516;2023-04-01T18:02:51;11.42;75.64
69776;DHT22;57049;51.450;-2.516;2023-04-01T18:05:51;11.35;76.14
69776;DHT22;57049;51.450;-2.516;2023-04-01T18:11:05;11.27;76.42
69776;DHT22;57049;51.450;-2.516;2023-04-01T18:13:50;11.26;77.41
69776;DHT22;57049;51.450;-2.516;2023-04-01T18:16:33;11.22;77.06
69776;DHT22;57049;51.450;-2.516;2023-04-01T18:22:19;11.11;77.83
69776;DHT22;57049;51.450;-2.516;2023-04-01T18:24:56;11.05;77.64
69776;DHT22;57049;51.450;-2.516;2023-04-01T18:27:40;10.99;78.17
69776;DHT22;57049;51.450;-2.516;2023-04-01T18:30:28;10.89;77.64
69776;DHT22;57049;51.450;-2.516;2023-04-01T18:33:23;10.78;77.73
69776;DHT22;57049;51.450;-2.516;2023-04-01T18:38:56;10.58;79.84
69776;DHT22;57049;51.450;-2.516;2023-04-01T18:44:36;10.34;80.47
69776;DHT22;57049;51.450;-2.516;2023-04-01T18:50:32;10.18;80.27
69776;DHT22;57049;51.450;-2.516;2023-04-01T18:53:09;10.10;80.71
69776;DHT22;57049;51.450;-2.516;2023-04-01T18:55:42;10.04;80.97
69776;DHT22;57049;51.450;-2.516;2023-04-01T18:58:41;10.00;81.38
69776;DHT22;57049;51.450;-2.516;2023-04-01T19:01:23;9.90;81.61
69776;DHT22;57049;51.450;-2.516;2023-04-01T19:04:42;9.86;81.78
69776;DHT22;57049;51.450;-2.516;2023-04-01T19:20:34;9.72;80.74
69776;DHT22;57049;51.450;-2.516;2023-04-01T19:25:43;9.68;79.75
69776;DHT22;57049;51.450;-2.516;2023-04-01T19:28:47;9.63;80.45
69776;DHT22;57049;51.450;-2.516;2023-04-01T19:31:43;9.58;79.48
69776;DHT22;57049;51.450;-2.516;2023-04-01T19:34:15;9.62;79.54
69776;DHT22;57049;51.450;-2.516;2023-04-01T19:37:09;9.59;79.97
69776;DHT22;57049;51.450;-2.516;2023-04-01T19:39:52;9.49;79.59
69776;DHT22;57049;51.450;-2.516;2023-04-01T19:42:52;9.43;79.14
69776;DHT22;57049;51.450;-2.516;2023-04-01T19:45:31;9.46;79.66
69776;DHT22;57049;51.450;-2.516;2023-04-01T19:48:38;9.42;79.69
69776;DHT22;57049;51.450;-2.516;2023-04-01T19:53:59;9.38;78.44
69776;DHT22;57049;51.450;-2.516;2023-04-01T19:56:39;9.34;79.24
69776;DHT22;57049;51.450;-2.516;2023-04-01T20:01:59;9.29;78.52
69776;DHT22;57049;51.450;-2.516;2023-04-01T20:04:32;9.24;78.59
69776;DHT22;57049;51.450;-2.516;2023-04-01T20:07:21;9.27;78.90
69776;DHT22;57049;51.450;-2.516;2023-04-01T20:14:57;9.24;78.71
69776;DHT22;57049;51.450;-2.516;2023-04-01T20:17:43;9.18;79.07
69776;DHT22;57049;51.450;-2.516;2023-04-01T20:25:23;9.18;78.70
69776;DHT22;57049;51.450;-2.516;2023-04-01T20:27:54;9.17;79.25
69776;DHT22;57049;51.450;-2.516;2023-04-01T20:38:41;9.12;80.66
69776;DHT22;57049;51.450;-2.516;2023-04-01T20:46:52;9.12;80.63
69776;DHT22;57049;51.450;-2.516;2023-04-01T20:49:34;9.10;80.88
69776;DHT22;57049;51.450;-2.516;2023-04-01T20:52:17;9.12;80.97
69776;DHT22;57049;51.450;-2.516;2023-04-01T20:55:02;9.11;81.16
69776;DHT22;57049;51.450;-2.516;2023-04-01T20:57:53;9.10;80.94
69776;DHT22;57049;51.450;-2.516;2023-04-01T21:08:57;9.08;83.13
69776;DHT22;57049;51.450;-2.516;2023-04-01T21:14:33;9.11;83.58
69776;DHT22;57049;51.450;-2.516;2023-04-01T21:17:33;9.05;83.83
69776;DHT22;57049;51.450;-2.516;2023-04-01T21:23:28;9.04;84.02
69776;DHT22;57049;51.450;-2.516;2023-04-01T21:36:40;8.90;83.97
69776;DHT22;57049;51.450;-2.516;2023-04-01T21:42:29;8.94;84.62
69776;DHT22;57049;51.450;-2.516;2023-04-01T22:01:04;8.77;85.93
69776;DHT22;57049;51.450;-2.516;2023-04-01T22:09:31;8.68;86.16
69776;DHT22;57049;51.450;-2.516;2023-04-01T22:17:26;8.73;86.73
69776;DHT22;57049;51.450;-2.516;2023-04-01T22:20:27;8.74;86.92
69776;DHT22;57049;51.450;-2.516;2023-04-01T22:31:47;8.61;86.69
69776;DHT22;57049;51.450;-2.516;2023-04-01T22:39:14;8.59;87.10
69776;DHT22;57049;51.450;-2.516;2023-04-01T22:52:43;8.46;87.30
69776;DHT22;57049;51.450;-2.516;2023-04-01T22:55:26;8.50;87.67
69776;DHT22;57049;51.450;-2.516;2023-04-01T22:58:09;8.50;87.39
69776;DHT22;57049;51.450;-2.516;2023-04-01T23:00:55;8.50;87.40
69776;DHT22;57049;51.450;-2.516;2023-04-01T23:06:01;8.46;88.23
69776;DHT22;57049;51.450;-2.516;2023-04-01T23:08:56;8.49;88.01
69776;DHT22;57049;51.450;-2.516;2023-04-01T23:16:49;8.42;88.11
69776;DHT22;57049;51.450;-2.516;2023-04-01T23:19:25;8.36;88.07
69776;DHT22;57049;51.450;-2.516;2023-04-01T23:22:02;8.37;88.37
69776;DHT22;57049;51.450;-2.516;2023-04-01T23:27:40;8.39;88.86
69776;DHT22;57049;51.450;-2.516;2023-04-01T23:38:22;8.25;89.45
69776;DHT22;57049;51.450;-2.516;2023-04-01T23:40:50;8.24;89.63
69776;DHT22;57049;51.450;-2.516;2023-04-01T23:43:25;8.19;89.61
69776;DHT22;57049;51.450;-2.516;2023-04-01T23:45:55;8.16;90.15
69776;DHT22;57049;51.450;-2.516;2023-04-01T23:48:27;8.10;90.06
69776;DHT22;57049;51.450;-2.516;2023-04-01T23:50:53;8.15;90.53
69776;DHT22;57049;51.450;-2.516;2023-04-01T23:53:22;8.10;89.93
69776;DHT22;57049;51.450;-2.516;2023-04-01T23:55:51;8.15;89.80
